createdAt,value
2017-07-15T00:00:23.140Z,0
2017-07-15T00:01:23.856Z,0
2017-07-15T00:02:24.581Z,0
2017-07-15T00:03:25.298Z,0
2017-07-15T00:04:26.022Z,0
2017-07-15T00:05:26.765Z,0
2017-07-15T00:06:27.486Z,0
2017-07-15T00:07:28.204Z,0
2017-07-15T00:08:28.929Z,0
2017-07-15T00:09:29.645Z,0
2017-07-15T00:10:30.388Z,0
2017-07-15T00:11:31.105Z,0
2017-07-15T00:12:31.829Z,0
2017-07-15T00:13:32.547Z,0
2017-07-15T00:14:33.271Z,0
2017-07-15T00:15:33.992Z,0
2017-07-15T00:16:34.713Z,0
2017-07-15T00:17:35.431Z,0
2017-07-15T00:18:36.151Z,0
2017-07-15T00:19:36.872Z,0
2017-07-15T00:20:37.596Z,0
2017-07-15T00:21:38.368Z,0
2017-07-15T00:22:39.063Z,0
2017-07-15T00:23:39.784Z,0
2017-07-15T00:24:40.504Z,0
2017-07-15T00:25:41.227Z,0
2017-07-15T00:26:41.946Z,0
2017-07-15T00:27:42.671Z,0
2017-07-15T00:28:43.390Z,0
2017-07-15T00:29:44.109Z,0
2017-07-15T00:30:44.830Z,0
2017-07-15T00:31:45.556Z,0
2017-07-15T00:32:46.280Z,0
2017-07-15T00:33:46.998Z,0
2017-07-15T00:34:47.722Z,0
2017-07-15T00:35:48.443Z,0
2017-07-15T00:36:49.166Z,0
2017-07-15T00:37:49.908Z,0
2017-07-15T00:38:50.633Z,0
2017-07-15T00:39:51.351Z,0
2017-07-15T00:40:52.073Z,0
2017-07-15T00:41:52.814Z,0
2017-07-15T00:42:53.537Z,0
2017-07-15T00:43:54.256Z,0
2017-07-15T00:44:54.997Z,0
2017-07-15T00:45:55.739Z,0
2017-07-15T00:46:56.458Z,0
2017-07-15T00:47:57.178Z,0
2017-07-15T00:48:57.900Z,0
2017-07-15T00:49:58.642Z,0
2017-07-15T00:50:59.363Z,0
2017-07-15T00:52:00.094Z,0
2017-07-15T00:53:00.828Z,0
2017-07-15T00:54:01.549Z,0
2017-07-15T00:55:02.269Z,0
2017-07-15T00:56:02.989Z,0
2017-07-15T00:57:03.709Z,0
2017-07-15T00:58:04.427Z,0
2017-07-15T00:59:05.149Z,0
2017-07-15T01:00:05.868Z,0
2017-07-15T01:01:06.594Z,0
2017-07-15T01:02:07.340Z,0
2017-07-15T01:03:08.060Z,0
2017-07-15T01:04:08.780Z,0
2017-07-15T01:05:09.500Z,0
2017-07-15T01:06:10.216Z,0
2017-07-15T01:07:10.936Z,0
2017-07-15T01:08:11.674Z,0
2017-07-15T01:09:12.391Z,0
2017-07-15T01:10:13.113Z,0
2017-07-15T01:11:13.837Z,0
2017-07-15T01:13:30.139Z,0
2017-07-15T01:14:30.881Z,0
2017-07-15T01:15:31.602Z,0
2017-07-15T01:16:32.322Z,0
2017-07-15T01:17:33.036Z,0
2017-07-15T01:18:33.754Z,0
2017-07-15T01:19:34.479Z,0
2017-07-15T01:20:35.196Z,0
2017-07-15T01:21:35.922Z,0
2017-07-15T01:22:36.662Z,0
2017-07-15T01:23:37.384Z,0
2017-07-15T01:24:38.099Z,0
2017-07-15T01:25:38.815Z,0
2017-07-15T01:26:39.536Z,0
2017-07-15T01:27:40.255Z,0
2017-07-15T01:28:40.973Z,0
2017-07-15T01:29:41.696Z,0
2017-07-15T01:30:42.415Z,0
2017-07-15T01:31:43.157Z,0
2017-07-15T01:32:43.877Z,0
2017-07-15T01:33:44.594Z,0
2017-07-15T01:34:45.333Z,0
2017-07-15T01:35:46.071Z,0
2017-07-15T01:36:46.797Z,0
2017-07-15T01:37:47.510Z,0
2017-07-15T01:38:48.253Z,0
2017-07-15T01:39:48.993Z,0
2017-07-15T01:40:49.715Z,0
2017-07-15T01:41:50.435Z,0
2017-07-15T01:42:51.176Z,0
2017-07-15T01:43:51.898Z,0
2017-07-15T01:44:52.616Z,0
2017-07-15T01:45:53.336Z,0
2017-07-15T01:46:54.079Z,0
2017-07-15T01:47:54.814Z,0
2017-07-15T01:48:55.556Z,0
2017-07-15T01:49:56.274Z,0
2017-07-15T01:50:56.991Z,0
2017-07-15T01:51:57.711Z,0
2017-07-15T01:52:58.433Z,0
2017-07-15T01:53:59.153Z,0
2017-07-15T01:54:59.869Z,0
2017-07-15T01:56:00.589Z,0
2017-07-15T01:57:01.309Z,0
2017-07-15T01:58:02.045Z,0
2017-07-15T01:59:02.785Z,0
2017-07-15T02:00:03.502Z,0
2017-07-15T02:01:04.227Z,0
2017-07-15T02:02:04.944Z,0
2017-07-15T02:03:05.665Z,0
2017-07-15T02:04:06.412Z,0
2017-07-15T02:05:07.127Z,0
2017-07-15T02:06:07.844Z,0
2017-07-15T02:07:08.574Z,0
2017-07-15T02:08:09.289Z,0
2017-07-15T02:09:10.027Z,0
2017-07-15T02:10:10.751Z,0
2017-07-15T02:11:11.481Z,0
2017-07-15T02:12:12.200Z,0
2017-07-15T02:13:12.923Z,0
2017-07-15T02:14:13.637Z,0
2017-07-15T02:15:14.361Z,0
2017-07-15T02:16:15.082Z,0
2017-07-15T02:17:15.800Z,0
2017-07-15T02:18:16.518Z,0
2017-07-15T02:19:17.239Z,0
2017-07-15T02:20:17.958Z,0
2017-07-15T02:21:18.679Z,0
2017-07-15T02:22:19.415Z,0
2017-07-15T02:23:20.139Z,0
2017-07-15T02:24:20.879Z,0
2017-07-15T02:25:21.598Z,0
2017-07-15T02:26:22.317Z,0
2017-07-15T02:27:23.038Z,0
2017-07-15T02:28:23.759Z,0
2017-07-15T02:29:24.480Z,0
2017-07-15T02:30:25.199Z,0
2017-07-15T02:31:25.940Z,0
2017-07-15T02:32:26.678Z,0
2017-07-15T02:33:27.417Z,0
2017-07-15T02:34:28.134Z,0
2017-07-15T02:35:28.878Z,0
2017-07-15T02:36:29.617Z,0
2017-07-15T02:37:30.340Z,0
2017-07-15T02:38:31.082Z,0
2017-07-15T02:39:31.804Z,0
2017-07-15T02:40:32.525Z,0
2017-07-15T02:41:33.261Z,0
2017-07-15T02:42:33.988Z,0
2017-07-15T02:43:34.702Z,0
2017-07-15T02:44:35.448Z,0
2017-07-15T02:45:36.163Z,0
2017-07-15T02:46:36.885Z,0
2017-07-15T02:47:37.609Z,0
2017-07-15T02:48:38.330Z,0
2017-07-15T02:49:39.071Z,0
2017-07-15T02:50:39.792Z,4
2017-07-15T02:51:40.531Z,4
2017-07-15T02:52:41.273Z,0
2017-07-15T02:53:41.992Z,4
2017-07-15T02:54:42.715Z,4
2017-07-15T02:55:43.430Z,0
2017-07-15T02:56:44.145Z,4
2017-07-15T02:57:44.865Z,4
2017-07-15T02:58:45.588Z,4
2017-07-15T02:59:46.308Z,8
2017-07-15T03:00:47.053Z,8
2017-07-15T03:01:47.770Z,8
2017-07-15T03:02:48.517Z,12
2017-07-15T03:03:49.234Z,12
2017-07-15T03:04:49.959Z,12
2017-07-15T03:05:50.679Z,16
2017-07-15T03:06:51.404Z,20
2017-07-15T03:07:52.127Z,20
2017-07-15T03:08:52.845Z,20
2017-07-15T03:09:53.569Z,20
2017-07-15T03:10:54.313Z,16
2017-07-15T03:11:55.054Z,20
2017-07-15T03:12:55.777Z,20
2017-07-15T03:13:56.500Z,28
2017-07-15T03:14:57.224Z,36
2017-07-15T03:15:57.944Z,40
2017-07-15T03:16:58.687Z,44
2017-07-15T03:17:59.406Z,48
2017-07-15T03:19:00.126Z,56
2017-07-15T03:20:00.843Z,68
2017-07-15T03:21:01.585Z,72
2017-07-15T03:22:02.307Z,80
2017-07-15T03:23:03.029Z,88
2017-07-15T03:24:03.746Z,92
2017-07-15T03:25:04.469Z,96
2017-07-15T03:26:05.206Z,92
2017-07-15T03:27:05.925Z,80
2017-07-15T03:28:06.651Z,72
2017-07-15T03:29:07.373Z,64
2017-07-15T03:30:08.091Z,64
2017-07-15T03:31:08.813Z,76
2017-07-15T03:32:09.537Z,92
2017-07-15T03:33:10.256Z,108
2017-07-15T03:34:10.976Z,124
2017-07-15T03:35:11.709Z,128
2017-07-15T03:36:12.421Z,132
2017-07-15T03:37:13.148Z,132
2017-07-15T03:38:13.869Z,128
2017-07-15T03:39:14.612Z,136
2017-07-15T03:40:15.336Z,124
2017-07-15T03:41:16.059Z,128
2017-07-15T03:42:16.802Z,144
2017-07-15T03:43:17.526Z,156
2017-07-15T03:44:18.252Z,176
2017-07-15T03:45:18.997Z,176
2017-07-15T03:46:19.740Z,188
2017-07-15T03:47:20.461Z,232
2017-07-15T03:48:21.185Z,256
2017-07-15T03:49:21.928Z,356
2017-07-15T03:50:22.654Z,364
2017-07-15T03:51:23.399Z,416
2017-07-15T03:52:24.121Z,440
2017-07-15T03:53:24.845Z,416
2017-07-15T03:54:25.568Z,408
2017-07-15T03:55:26.293Z,472
2017-07-15T03:56:27.034Z,508
2017-07-15T03:57:27.760Z,532
2017-07-15T03:58:28.481Z,560
2017-07-15T03:59:29.203Z,600
2017-07-15T04:00:29.925Z,588
2017-07-15T04:01:30.648Z,616
2017-07-15T04:02:31.375Z,656
2017-07-15T04:03:32.099Z,688
2017-07-15T04:04:32.819Z,760
2017-07-15T04:05:33.549Z,800
2017-07-15T04:06:34.269Z,872
2017-07-15T04:07:34.993Z,936
2017-07-15T04:08:35.720Z,1008
2017-07-15T04:09:36.464Z,1088
2017-07-15T04:10:37.193Z,1084
2017-07-15T04:11:37.938Z,1108
2017-07-15T04:12:38.662Z,1144
2017-07-15T04:13:39.389Z,1204
2017-07-15T04:14:40.114Z,1256
2017-07-15T04:15:40.842Z,1288
2017-07-15T04:16:41.566Z,1456
2017-07-15T04:17:42.289Z,1604
2017-07-15T04:18:43.018Z,1680
2017-07-15T04:19:43.766Z,1652
2017-07-15T04:20:44.486Z,1700
2017-07-15T04:21:45.233Z,1780
2017-07-15T04:22:45.978Z,1760
2017-07-15T04:23:46.704Z,1688
2017-07-15T04:24:47.425Z,1720
2017-07-15T04:25:48.154Z,1764
2017-07-15T04:26:48.879Z,1824
2017-07-15T04:27:49.602Z,1804
2017-07-15T04:28:50.344Z,1588
2017-07-15T04:29:51.089Z,1440
2017-07-15T04:30:51.817Z,1392
2017-07-15T04:31:52.564Z,1388
2017-07-15T04:32:53.286Z,1440
2017-07-15T04:33:54.007Z,1508
2017-07-15T04:34:54.733Z,1544
2017-07-15T04:35:55.465Z,1572
2017-07-15T04:36:56.186Z,1652
2017-07-15T04:37:56.911Z,1592
2017-07-15T04:38:57.638Z,1492
2017-07-15T04:39:58.379Z,1380
2017-07-15T04:40:59.103Z,1308
2017-07-15T04:41:59.832Z,1352
2017-07-15T04:43:00.554Z,1644
2017-07-15T04:44:01.280Z,1948
2017-07-15T04:45:02.007Z,1908
2017-07-15T04:46:02.735Z,1836
2017-07-15T04:47:03.455Z,1904
2017-07-15T04:48:04.184Z,1872
2017-07-15T04:49:04.911Z,1708
2017-07-15T04:50:05.658Z,1552
2017-07-15T04:51:06.386Z,1456
2017-07-15T04:52:07.111Z,1380
2017-07-15T04:53:07.856Z,1380
2017-07-15T04:54:08.584Z,1432
2017-07-15T04:55:09.309Z,1608
2017-07-15T04:56:10.054Z,1812
2017-07-15T04:57:10.796Z,2000
2017-07-15T04:58:11.521Z,2124
2017-07-15T04:59:12.249Z,2228
2017-07-15T05:00:12.997Z,2388
2017-07-15T05:01:13.722Z,2636
2017-07-15T05:02:14.450Z,2700
2017-07-15T05:03:15.177Z,2496
2017-07-15T05:04:15.900Z,2272
2017-07-15T05:05:16.629Z,2324
2017-07-15T05:06:17.370Z,2476
2017-07-15T05:07:18.097Z,2640
2017-07-15T05:08:18.844Z,2692
2017-07-15T05:09:19.573Z,2800
2017-07-15T05:10:20.309Z,2960
2017-07-15T05:11:21.041Z,3072
2017-07-15T05:12:21.763Z,3124
2017-07-15T05:13:22.489Z,3212
2017-07-15T05:14:23.221Z,3260
2017-07-15T05:15:23.946Z,3288
2017-07-15T05:16:24.670Z,3172
2017-07-15T05:17:25.398Z,2980
2017-07-15T05:18:26.123Z,2780
2017-07-15T05:19:26.869Z,2808
2017-07-15T05:20:27.572Z,2896
2017-07-15T05:21:28.317Z,2772
2017-07-15T05:22:29.065Z,2836
2017-07-15T05:23:29.813Z,2720
2017-07-15T05:24:30.560Z,2408
2017-07-15T05:25:31.288Z,2136
2017-07-15T05:26:32.012Z,2484
2017-07-15T05:27:32.735Z,2688
2017-07-15T05:28:33.463Z,2560
2017-07-15T05:29:34.184Z,2252
2017-07-15T05:30:34.912Z,2228
2017-07-15T05:31:35.635Z,2276
2017-07-15T05:32:36.357Z,2448
2017-07-15T05:33:37.081Z,2400
2017-07-15T05:34:37.804Z,3020
2017-07-15T05:35:38.551Z,3404
2017-07-15T05:36:39.275Z,3112
2017-07-15T05:37:40.021Z,2912
2017-07-15T05:38:40.766Z,3240
2017-07-15T05:39:41.490Z,3372
2017-07-15T05:40:42.215Z,3400
2017-07-15T05:41:42.947Z,3344
2017-07-15T05:42:43.672Z,3424
2017-07-15T05:43:44.399Z,3540
2017-07-15T05:44:45.126Z,3584
2017-07-15T05:45:45.851Z,3808
2017-07-15T05:46:46.581Z,3916
2017-07-15T05:47:47.311Z,4036
2017-07-15T05:48:48.043Z,4112
2017-07-15T05:49:48.761Z,4400
2017-07-15T05:50:49.494Z,4540
2017-07-15T05:51:50.214Z,4584
2017-07-15T05:52:50.942Z,4404
2017-07-15T05:53:51.666Z,4188
2017-07-15T05:54:52.390Z,4384
2017-07-15T05:55:53.114Z,4632
2017-07-15T05:56:53.865Z,4576
2017-07-15T05:57:54.590Z,5020
2017-07-15T05:58:55.314Z,6120
2017-07-15T05:59:56.047Z,6664
2017-07-15T06:00:56.773Z,7392
2017-07-15T06:01:57.497Z,7756
2017-07-15T06:02:58.226Z,8028
2017-07-15T06:03:58.980Z,8400
2017-07-15T06:04:59.701Z,8872
2017-07-15T06:06:00.447Z,9360
2017-07-15T06:07:01.170Z,8788
2017-07-15T06:08:01.899Z,8328
2017-07-15T06:09:02.623Z,8196
2017-07-15T06:10:03.370Z,8704
2017-07-15T06:11:04.119Z,9000
2017-07-15T06:12:04.846Z,8756
2017-07-15T06:13:05.573Z,7768
2017-07-15T06:14:06.298Z,7060
2017-07-15T06:15:07.026Z,6336
2017-07-15T06:16:07.753Z,5640
2017-07-15T06:17:08.485Z,5064
2017-07-15T06:18:09.228Z,4520
2017-07-15T06:19:09.955Z,3860
2017-07-15T06:20:10.679Z,3952
2017-07-15T06:21:11.407Z,3852
2017-07-15T06:22:12.157Z,3788
2017-07-15T06:23:12.879Z,3956
2017-07-15T06:24:13.633Z,4352
2017-07-15T06:25:14.332Z,4532
2017-07-15T06:26:15.064Z,4432
2017-07-15T06:27:15.786Z,4004
2017-07-15T06:28:16.516Z,3940
2017-07-15T06:29:17.237Z,4052
2017-07-15T06:30:17.965Z,3928
2017-07-15T06:31:18.691Z,3552
2017-07-15T06:32:19.419Z,3592
2017-07-15T06:33:20.147Z,3652
2017-07-15T06:34:20.872Z,3616
2017-07-15T06:35:21.621Z,3840
2017-07-15T06:36:22.343Z,4180
2017-07-15T06:37:23.089Z,4480
2017-07-15T06:38:23.816Z,4688
2017-07-15T06:39:24.562Z,4964
2017-07-15T06:40:25.287Z,5412
2017-07-15T06:41:26.033Z,5436
2017-07-15T06:42:26.761Z,5712
2017-07-15T06:43:27.510Z,6200
2017-07-15T06:44:28.237Z,6304
2017-07-15T06:45:28.962Z,6636
2017-07-15T06:46:29.692Z,6496
2017-07-15T06:47:30.416Z,5740
2017-07-15T06:48:31.146Z,5092
2017-07-15T06:49:31.896Z,6032
2017-07-15T06:50:32.642Z,7124
2017-07-15T06:51:33.370Z,7940
2017-07-15T06:52:34.118Z,8140
2017-07-15T06:53:34.843Z,7668
2017-07-15T06:54:35.572Z,6956
2017-07-15T06:55:36.321Z,8008
2017-07-15T06:56:37.070Z,8404
2017-07-15T06:57:37.795Z,8664
2017-07-15T06:58:38.522Z,9112
2017-07-15T06:59:39.249Z,9616
2017-07-15T07:00:39.977Z,9508
2017-07-15T07:01:40.705Z,9116
2017-07-15T07:02:41.434Z,7684
2017-07-15T07:03:42.160Z,5972
2017-07-15T07:04:42.888Z,4836
2017-07-15T07:05:43.616Z,3608
2017-07-15T07:06:44.341Z,2908
2017-07-15T07:07:45.065Z,3192
2017-07-15T07:08:45.811Z,3936
2017-07-15T07:09:46.538Z,4436
2017-07-15T07:10:47.264Z,5952
2017-07-15T07:11:47.993Z,6012
2017-07-15T07:12:48.743Z,6744
2017-07-15T07:13:49.468Z,7040
2017-07-15T07:14:50.194Z,7032
2017-07-15T07:15:50.941Z,7288
2017-07-15T07:16:51.669Z,6752
2017-07-15T07:17:52.394Z,5528
2017-07-15T07:18:53.122Z,5300
2017-07-15T07:19:53.868Z,5732
2017-07-15T07:20:54.595Z,5904
2017-07-15T07:21:55.325Z,6444
2017-07-15T07:22:56.049Z,6276
2017-07-15T07:23:56.799Z,6180
2017-07-15T07:24:57.526Z,6640
2017-07-15T07:25:58.254Z,6792
2017-07-15T07:26:58.979Z,7372
2017-07-15T07:27:59.708Z,8280
2017-07-15T07:29:00.458Z,8364
2017-07-15T07:30:01.188Z,8632
2017-07-15T07:31:01.916Z,8888
2017-07-15T07:32:02.642Z,9072
2017-07-15T07:33:03.370Z,9088
2017-07-15T07:34:04.105Z,9072
2017-07-15T07:35:04.827Z,9044
2017-07-15T07:36:05.573Z,9060
2017-07-15T07:37:06.323Z,8840
2017-07-15T07:38:07.051Z,9288
2017-07-15T07:39:07.777Z,9132
2017-07-15T07:40:08.522Z,8848
2017-07-15T07:41:09.251Z,9376
2017-07-15T07:42:09.978Z,9588
2017-07-15T07:43:10.710Z,9800
2017-07-15T07:44:11.463Z,10344
2017-07-15T07:45:12.192Z,10408
2017-07-15T07:46:12.922Z,10548
2017-07-15T07:47:13.654Z,11012
2017-07-15T07:48:14.384Z,11100
2017-07-15T07:49:15.112Z,10808
2017-07-15T07:50:15.843Z,11152
2017-07-15T07:51:16.573Z,9916
2017-07-15T07:52:17.321Z,9096
2017-07-15T07:53:18.050Z,9384
2017-07-15T07:54:18.775Z,8776
2017-07-15T07:55:19.505Z,8908
2017-07-15T07:56:20.235Z,10988
2017-07-15T07:57:20.969Z,12320
2017-07-15T07:58:21.695Z,11368
2017-07-15T07:59:22.428Z,10000
2017-07-15T08:00:23.152Z,9632
2017-07-15T08:01:23.887Z,13620
2017-07-15T08:02:24.616Z,15116
2017-07-15T08:03:25.346Z,16512
2017-07-15T08:04:26.083Z,20864
2017-07-15T08:05:26.814Z,21568
2017-07-15T08:06:27.546Z,20480
2017-07-15T08:07:28.300Z,70080
2017-07-15T08:08:29.058Z,88160
2017-07-15T08:09:29.787Z,85440
2017-07-15T08:10:30.543Z,92256
2017-07-15T08:11:31.285Z,42272
2017-07-15T08:12:32.019Z,86720
2017-07-15T08:13:32.755Z,36128
2017-07-15T08:14:33.493Z,33312
2017-07-15T08:15:34.230Z,35104
2017-07-15T08:16:34.966Z,24960
2017-07-15T08:17:35.722Z,20416
2017-07-15T08:18:36.458Z,17632
2017-07-15T08:19:37.215Z,17568
2017-07-15T08:20:37.972Z,18528
2017-07-15T08:21:38.710Z,17632
2017-07-15T08:22:39.446Z,13148
2017-07-15T08:23:40.184Z,10568
2017-07-15T08:24:40.934Z,10060
2017-07-15T08:25:41.671Z,9772
2017-07-15T08:26:42.423Z,9380
2017-07-15T08:27:43.157Z,8904
2017-07-15T08:28:43.890Z,8044
2017-07-15T08:29:44.618Z,7360
2017-07-15T08:30:45.354Z,6668
2017-07-15T08:31:46.083Z,5536
2017-07-15T08:32:46.818Z,4528
2017-07-15T08:33:47.569Z,3996
2017-07-15T08:34:48.299Z,4176
2017-07-15T08:35:49.048Z,4232
2017-07-15T08:36:49.799Z,4212
2017-07-15T08:37:50.527Z,4216
2017-07-15T08:38:51.253Z,4400
2017-07-15T08:39:51.985Z,4988
2017-07-15T08:40:52.714Z,5640
2017-07-15T08:41:53.442Z,6044
2017-07-15T08:42:54.175Z,6452
2017-07-15T08:43:54.928Z,7048
2017-07-15T08:44:55.655Z,7780
2017-07-15T08:45:56.384Z,8544
2017-07-15T08:46:57.116Z,9376
2017-07-15T08:47:57.868Z,10388
2017-07-15T08:48:58.624Z,11744
2017-07-15T08:49:59.356Z,13088
2017-07-15T08:51:00.109Z,13944
2017-07-15T08:52:00.839Z,13696
2017-07-15T08:53:01.566Z,13324
2017-07-15T08:54:02.300Z,13752
2017-07-15T08:55:03.027Z,14388
2017-07-15T08:56:03.757Z,14124
2017-07-15T08:57:04.490Z,12864
2017-07-15T08:58:05.244Z,11560
2017-07-15T08:59:06.002Z,10500
2017-07-15T09:00:06.731Z,10260
2017-07-15T09:01:07.459Z,10972
2017-07-15T09:02:08.188Z,12628
2017-07-15T09:03:08.917Z,12580
2017-07-15T09:04:09.669Z,13244
2017-07-15T09:05:10.401Z,15672
2017-07-15T09:06:11.135Z,33984
2017-07-15T09:07:11.869Z,29792
2017-07-15T09:08:12.616Z,41664
2017-07-15T09:09:13.350Z,114272
2017-07-15T09:10:14.086Z,44832
2017-07-15T09:11:14.824Z,43904
2017-07-15T09:12:15.561Z,25440
2017-07-15T09:13:16.293Z,92224
2017-07-15T09:14:17.053Z,66176
2017-07-15T09:15:17.794Z,27360
2017-07-15T09:16:18.530Z,52704
2017-07-15T09:17:19.269Z,83904
2017-07-15T09:18:20.012Z,105984
2017-07-15T09:19:20.756Z,110272
2017-07-15T09:20:21.520Z,76640
2017-07-15T09:21:22.264Z,29408
2017-07-15T09:22:23.001Z,22080
2017-07-15T09:23:23.735Z,21888
2017-07-15T09:24:24.475Z,22240
2017-07-15T09:25:25.238Z,31616
2017-07-15T09:26:25.974Z,24192
2017-07-15T09:27:26.715Z,103936
2017-07-15T09:28:27.462Z,20032
2017-07-15T09:29:28.219Z,13440
2017-07-15T09:30:28.939Z,9208
2017-07-15T09:31:29.680Z,8328
2017-07-15T09:32:30.420Z,8268
2017-07-15T09:33:31.158Z,8216
2017-07-15T09:34:31.897Z,8232
2017-07-15T09:35:32.635Z,7924
2017-07-15T09:36:33.392Z,7360
2017-07-15T09:37:34.129Z,6796
2017-07-15T09:38:34.868Z,6484
2017-07-15T09:39:35.606Z,6580
2017-07-15T09:40:36.332Z,6920
2017-07-15T09:41:37.064Z,7416
2017-07-15T09:42:37.820Z,7984
2017-07-15T09:43:38.558Z,8832
2017-07-15T09:44:39.290Z,9912
2017-07-15T09:45:40.023Z,10876
2017-07-15T09:46:40.760Z,12044
2017-07-15T09:47:41.495Z,13640
2017-07-15T09:48:42.226Z,22496
2017-07-15T09:49:42.959Z,18592
2017-07-15T09:50:43.697Z,23936
2017-07-15T09:51:44.424Z,32768
2017-07-15T09:52:45.159Z,23296
2017-07-15T09:53:45.912Z,24384
2017-07-15T09:54:46.666Z,20992
2017-07-15T09:55:47.396Z,20896
2017-07-15T09:56:48.135Z,22144
2017-07-15T09:57:48.891Z,25888
2017-07-15T09:58:49.628Z,106144
2017-07-15T09:59:50.367Z,62976
2017-07-15T10:00:51.106Z,50784
2017-07-15T10:01:51.847Z,86976
2017-07-15T10:02:52.589Z,27488
2017-07-15T10:03:53.332Z,93792
2017-07-15T10:04:54.077Z,117632
2017-07-15T10:05:54.812Z,46720
2017-07-15T10:06:55.551Z,69504
2017-07-15T10:07:56.288Z,56384
2017-07-15T10:08:57.028Z,115488
2017-07-15T10:09:57.791Z,119296
2017-07-15T10:10:58.530Z,109376
2017-07-15T10:11:59.274Z,30080
2017-07-15T10:13:00.031Z,75264
2017-07-15T10:14:00.776Z,64864
2017-07-15T10:15:01.516Z,51968
2017-07-15T10:16:02.254Z,40416
2017-07-15T10:17:03.015Z,83040
2017-07-15T10:18:03.757Z,101664
2017-07-15T10:19:04.501Z,77536
2017-07-15T10:20:05.243Z,110016
2017-07-15T10:21:05.983Z,52320
2017-07-15T10:22:06.725Z,82016
2017-07-15T10:23:07.471Z,55904
2017-07-15T10:24:08.209Z,69568
2017-07-15T10:25:08.953Z,45440
2017-07-15T10:26:09.695Z,100864
2017-07-15T10:27:10.434Z,69664
2017-07-15T10:28:11.176Z,91040
2017-07-15T10:29:11.921Z,89056
2017-07-15T10:30:12.685Z,92160
2017-07-15T10:31:13.432Z,102464
2017-07-15T10:32:14.179Z,107392
2017-07-15T10:33:14.933Z,104928
2017-07-15T10:34:15.685Z,104320
2017-07-15T10:35:16.437Z,112000
2017-07-15T10:36:17.196Z,108672
2017-07-15T10:37:17.946Z,104128
2017-07-15T10:38:18.719Z,95488
2017-07-15T10:39:19.469Z,97216
2017-07-15T10:40:20.222Z,76576
2017-07-15T10:41:20.994Z,105888
2017-07-15T10:42:21.741Z,99136
2017-07-15T10:43:22.493Z,42304
2017-07-15T10:44:23.240Z,23328
2017-07-15T10:45:24.010Z,19328
2017-07-15T10:46:24.762Z,24032
2017-07-15T10:47:25.544Z,19168
2017-07-15T10:48:26.289Z,20192
2017-07-15T10:49:27.045Z,34016
2017-07-15T10:50:27.786Z,18176
2017-07-15T10:51:28.523Z,15372
2017-07-15T10:52:29.263Z,14736
2017-07-15T10:53:30.006Z,17376
2017-07-15T10:54:30.741Z,20544
2017-07-15T10:55:31.484Z,25472
2017-07-15T10:56:32.222Z,24288
2017-07-15T10:57:32.958Z,27808
2017-07-15T10:58:33.703Z,29184
2017-07-15T10:59:34.444Z,59744
2017-07-15T11:00:35.179Z,41504
2017-07-15T11:01:35.927Z,20672
2017-07-15T11:02:36.657Z,18016
2017-07-15T11:03:37.394Z,15512
2017-07-15T11:04:38.133Z,13248
2017-07-15T11:05:38.867Z,11940
2017-07-15T11:06:39.627Z,10672
2017-07-15T11:07:40.364Z,9556
2017-07-15T11:08:41.102Z,8564
2017-07-15T11:09:41.841Z,7792
2017-07-15T11:10:42.578Z,7276
2017-07-15T11:11:43.310Z,7052
2017-07-15T11:12:44.044Z,6900
2017-07-15T11:13:44.778Z,6696
2017-07-15T11:14:45.509Z,6712
2017-07-15T11:15:46.250Z,6924
2017-07-15T11:16:46.989Z,6932
2017-07-15T11:17:47.730Z,7356
2017-07-15T11:18:48.455Z,8152
2017-07-15T11:19:49.194Z,8880
2017-07-15T11:20:49.928Z,10000
2017-07-15T11:21:50.665Z,11248
2017-07-15T11:22:51.404Z,12772
2017-07-15T11:23:52.145Z,14196
2017-07-15T11:24:52.879Z,15540
2017-07-15T11:25:53.616Z,17216
2017-07-15T11:26:54.355Z,18496
2017-07-15T11:27:55.119Z,21312
2017-07-15T11:28:55.855Z,28640
2017-07-15T11:29:56.598Z,29408
2017-07-15T11:30:57.335Z,41760
2017-07-15T11:31:58.073Z,29504
2017-07-15T11:32:58.812Z,25952
2017-07-15T11:33:59.557Z,24288
2017-07-15T11:35:00.315Z,22432
2017-07-15T11:36:01.058Z,23360
2017-07-15T11:37:01.799Z,24160
2017-07-15T11:38:02.533Z,28352
2017-07-15T11:39:03.271Z,46880
2017-07-15T11:40:04.010Z,27680
2017-07-15T11:41:04.753Z,23808
2017-07-15T11:42:05.483Z,22336
2017-07-15T11:43:06.226Z,21536
2017-07-15T11:44:06.963Z,20544
2017-07-15T11:45:07.696Z,21248
2017-07-15T11:46:08.435Z,19040
2017-07-15T11:47:09.170Z,18336
2017-07-15T11:48:09.911Z,18528
2017-07-15T11:49:10.644Z,20320
2017-07-15T11:50:11.381Z,21824
2017-07-15T11:51:12.122Z,22720
2017-07-15T11:52:12.857Z,22496
2017-07-15T11:53:13.592Z,22112
2017-07-15T11:54:14.350Z,22368
2017-07-15T11:55:15.112Z,21216
2017-07-15T11:56:15.868Z,21504
2017-07-15T11:57:16.609Z,23904
2017-07-15T11:58:17.349Z,26272
2017-07-15T11:59:18.095Z,31424
2017-07-15T12:00:18.824Z,31104
2017-07-15T12:01:19.563Z,30272
2017-07-15T12:02:20.320Z,30080
2017-07-15T12:03:21.076Z,38592
2017-07-15T12:04:21.810Z,53088
2017-07-15T12:05:22.574Z,36480
2017-07-15T12:06:23.329Z,51136
2017-07-15T12:07:24.098Z,31488
2017-07-15T12:08:24.858Z,31808
2017-07-15T12:09:25.592Z,29504
2017-07-15T12:10:26.333Z,35968
2017-07-15T12:11:27.066Z,32256
2017-07-15T12:12:27.806Z,35104
2017-07-15T12:13:28.545Z,30240
2017-07-15T12:14:29.299Z,29632
2017-07-15T12:15:30.062Z,36416
2017-07-15T12:16:30.801Z,37504
2017-07-15T12:17:31.536Z,29856
2017-07-15T12:18:32.292Z,23392
2017-07-15T12:19:33.030Z,24224
2017-07-15T12:20:33.767Z,21440
2017-07-15T12:21:34.514Z,22688
2017-07-15T12:22:35.267Z,23808
2017-07-15T12:23:36.005Z,24320
2017-07-15T12:24:36.742Z,27104
2017-07-15T12:25:37.481Z,35232
2017-07-15T12:26:38.215Z,82784
2017-07-15T12:27:38.958Z,42432
2017-07-15T12:28:39.693Z,79584
2017-07-15T12:29:40.428Z,77248
2017-07-15T12:30:41.171Z,59296
2017-07-15T12:31:41.908Z,54688
2017-07-15T12:32:42.648Z,62336
2017-07-15T12:33:43.399Z,57632
2017-07-15T12:34:44.156Z,45696
2017-07-15T12:35:44.891Z,29184
2017-07-15T12:36:45.656Z,42464
2017-07-15T12:37:46.390Z,50144
2017-07-15T12:38:47.129Z,46016
2017-07-15T12:39:47.875Z,58432
2017-07-15T12:40:48.613Z,35936
2017-07-15T12:41:49.376Z,67392
2017-07-15T12:42:50.119Z,80128
2017-07-15T12:43:50.858Z,50848
2017-07-15T12:44:51.616Z,18784
2017-07-15T12:45:52.353Z,14404
2017-07-15T12:46:53.094Z,12344
2017-07-15T12:47:53.832Z,11560
2017-07-15T12:48:54.574Z,12132
2017-07-15T12:49:55.337Z,12732
2017-07-15T12:50:56.090Z,12856
2017-07-15T12:51:56.826Z,12120
2017-07-15T12:52:57.562Z,11896
2017-07-15T12:53:58.304Z,11940
2017-07-15T12:54:59.043Z,11080
2017-07-15T12:55:59.819Z,10592
2017-07-15T12:57:00.579Z,9764
2017-07-15T12:58:01.332Z,9072
2017-07-15T12:59:02.065Z,8592
2017-07-15T13:00:02.798Z,7700
2017-07-15T13:01:03.552Z,7384
2017-07-15T13:02:04.288Z,7416
2017-07-15T13:03:05.021Z,7792
2017-07-15T13:04:05.759Z,8556
2017-07-15T13:05:06.487Z,9264
2017-07-15T13:06:07.222Z,10148
2017-07-15T13:07:07.977Z,11552
2017-07-15T13:08:08.710Z,13716
2017-07-15T13:09:09.451Z,15584
2017-07-15T13:10:10.182Z,17408
2017-07-15T13:11:10.974Z,37824
2017-07-15T13:12:11.736Z,58112
2017-07-15T13:13:12.472Z,78272
2017-07-15T13:14:13.211Z,69024
2017-07-15T13:15:13.949Z,47328
2017-07-15T13:16:14.702Z,38176
2017-07-15T13:17:15.458Z,29472
2017-07-15T13:18:16.197Z,58112
2017-07-15T13:19:16.938Z,71968
2017-07-15T13:20:17.675Z,63424
2017-07-15T13:21:18.438Z,60352
2017-07-15T13:22:19.173Z,45408
2017-07-15T13:23:19.914Z,36576
2017-07-15T13:24:20.650Z,33984
2017-07-15T13:25:21.414Z,34656
2017-07-15T13:26:22.153Z,31776
2017-07-15T13:27:22.891Z,26176
2017-07-15T13:28:23.630Z,26560
2017-07-15T13:29:24.367Z,27360
2017-07-15T13:30:25.109Z,23616
2017-07-15T13:31:25.851Z,29440
2017-07-15T13:32:26.583Z,38272
2017-07-15T13:33:27.346Z,21760
2017-07-15T13:34:28.085Z,19296
2017-07-15T13:35:28.819Z,18720
2017-07-15T13:36:29.573Z,19136
2017-07-15T13:37:30.326Z,20192
2017-07-15T13:38:31.087Z,16928
2017-07-15T13:39:31.822Z,16736
2017-07-15T13:40:32.557Z,17408